Time;durP1;ratioP1;P1;durP2;ratioP2;P2;SDS_P1;SDS_P2;PMS_P1;PMS_P2;Temp;Humidity;BMP_temperature;BMP_pressure;BME280_temperature;BME280_humidity;BME280_pressure;Samples;Min_cycle;Max_cycle;Signal;HPM_P1;HPM_P2
2021/03/29 15:27:31;;;;;;;9.67;4.37;;;;;;;;;;12017864;22;20983;-88
2021/03/29 15:32:34;;;;;;;6.50;3.27;;;;;;;;;;10486603;28;20603;-91
2021/03/29 15:37:37;;;;;;;6.10;3.20;;;;;;;;;;10487230;28;20253;-84
2021/03/29 15:42:40;;;;;;;9.17;3.47;;;;;;;;;;10492694;28;20215;-85
2021/03/29 15:47:42;;;;;;;6.03;2.60;;;;;;;;;;10485084;28;20311;-90
2021/03/29 15:53:06;;;;;;;7.60;2.93;;;;;;;;;;10486565;28;20235;-84
2021/03/29 15:58:16;;;;;;;8.10;2.97;;;;;;;;;;10471683;28;20275;-84
2021/03/29 16:03:27;;;;;;;7.60;2.97;;;;;;;;;;10463161;28;20222;-82
2021/03/29 16:08:31;;;;;;;5.03;3.00;;;;;;;;;;10450456;28;20214;-86
2021/03/29 16:13:46;;;;;;;6.40;2.63;;;;;;;;;;10442275;28;20258;-81
2021/03/29 16:18:58;;;;;;;5.73;2.60;;;;;;;;;;10441088;28;20211;-82
2021/03/29 16:24:01;;;;;;;5.47;2.80;;;;;;;;;;10435395;28;20212;-90
2021/03/29 16:29:04;;;;;;;5.27;2.50;;;;;;;;;;10451497;28;20218;-84
2021/03/29 16:34:07;;;;;;;4.13;2.40;;;;;;;;;;10447735;28;20601;-91
2021/03/29 16:39:09;;;;;;;5.00;2.73;;;;;;;;;;10453715;28;20214;-89
2021/03/29 16:44:11;;;;;;;5.47;2.70;;;;;;;;;;10450169;28;20211;-84
2021/03/29 16:49:14;;;;;;;5.53;2.83;;;;;;;;;;10437883;28;20255;-86
2021/03/29 16:54:36;;;;;;;4.67;2.53;;;;;;;;;;10455043;28;20582;-88
2021/03/29 16:59:39;;;;;;;6.60;3.63;;;;;;;;;;10424583;28;20227;-92
2021/03/29 17:04:42;;;;;;;7.13;2.53;;;;;;;;;;10448820;28;20306;-88
2021/03/29 17:09:44;;;;;;;6.70;2.50;;;;;;;;;;10446391;28;20217;-84
2021/03/29 17:14:47;;;;;;;6.77;2.87;;;;;;;;;;10435462;28;20672;-84
2021/03/29 17:19:53;;;;;;;6.70;2.67;;;;;;;;;;10430989;28;20223;-90
2021/03/29 17:24:55;;;;;;;6.70;2.87;;;;;;;;;;10431009;28;21102;-84
2021/03/29 17:29:57;;;;;;;11.10;3.80;;;;;;;;;;10432416;28;20971;-85
2021/03/29 17:35:01;;;;;;;8.77;3.83;;;;;;;;;;10431146;28;20709;-86
2021/03/29 17:40:04;;;;;;;7.50;3.70;;;;;;;;;;10435986;28;20772;-85
2021/03/29 17:45:09;;;;;;;8.30;4.33;;;;;;;;;;10428393;28;20207;-83
2021/03/29 17:50:12;;;;;;;10.27;4.47;;;;;;;;;;10429049;28;20538;-85
2021/03/29 17:55:14;;;;;;;9.17;4.30;;;;;;;;;;10434831;28;20215;-84
2021/03/29 18:00:18;;;;;;;10.50;5.33;;;;;;;;;;10430839;28;20241;-85
2021/03/29 18:05:19;;;;;;;10.07;4.90;;;;;;;;;;10436808;28;20214;-84
2021/03/29 18:10:22;;;;;;;9.67;4.93;;;;;;;;;;10424623;28;20230;-84
2021/03/29 18:15:25;;;;;;;10.20;4.43;;;;;;;;;;10447266;28;20699;-83
2021/03/29 18:20:27;;;;;;;11.43;4.40;;;;;;;;;;10437306;28;20207;-83
2021/03/29 18:25:29;;;;;;;8.17;4.60;;;;;;;;;;10430637;28;20222;-84
2021/03/29 18:30:32;;;;;;;9.47;4.17;;;;;;;;;;10439376;28;20235;-84
2021/03/29 18:35:35;;;;;;;9.27;4.13;;;;;;;;;;10437067;28;20734;-86
2021/03/29 18:40:43;;;;;;;6.80;3.90;;;;;;;;;;10441716;28;20425;-87
2021/03/29 18:45:46;;;;;;;9.93;4.20;;;;;;;;;;10445775;28;20207;-84
2021/03/29 18:50:48;;;;;;;8.83;4.00;;;;;;;;;;10453694;28;20726;-84
2021/03/29 18:56:02;;;;;;;12.03;4.57;;;;;;;;;;10441229;28;21131;-83
2021/03/29 19:01:06;;;;;;;10.13;4.50;;;;;;;;;;10446700;28;20238;-83
2021/03/29 19:06:08;;;;;;;9.90;4.80;;;;;;;;;;10439424;28;20476;-83
2021/03/29 19:11:11;;;;;;;9.80;4.27;;;;;;;;;;10444275;28;20477;-85
2021/03/29 19:16:16;;;;;;;16.27;4.60;;;;;;;;;;10437953;28;20219;-79
2021/03/29 19:21:18;;;;;;;9.17;4.10;;;;;;;;;;10437813;28;20302;-79
2021/03/29 19:26:21;;;;;;;7.97;4.47;;;;;;;;;;10429969;28;20233;-84
2021/03/29 19:31:24;;;;;;;8.03;4.10;;;;;;;;;;10432067;28;20235;-79
2021/03/29 19:36:28;;;;;;;11.80;4.80;;;;;;;;;;10441089;28;20221;-79
2021/03/29 19:41:30;;;;;;;10.20;4.40;;;;;;;;;;10444992;28;20249;-86
2021/03/29 19:46:33;;;;;;;9.97;4.53;;;;;;;;;;10443734;28;20324;-84
2021/03/29 19:51:35;;;;;;;11.50;4.80;;;;;;;;;;10442193;28;20242;-80
2021/03/29 19:56:38;;;;;;;7.30;4.53;;;;;;;;;;10443328;28;20392;-79
2021/03/29 20:01:41;;;;;;;8.30;4.60;;;;;;;;;;10448919;28;20226;-79
2021/03/29 20:06:50;;;;;;;10.67;4.83;;;;;;;;;;10446600;28;20294;-81
2021/03/29 20:11:52;;;;;;;10.37;5.30;;;;;;;;;;10436789;28;20239;-80
2021/03/29 20:16:55;;;;;;;8.63;4.80;;;;;;;;;;10441909;28;20833;-80
2021/03/29 20:21:57;;;;;;;11.83;5.20;;;;;;;;;;10451583;28;20218;-80
2021/03/29 20:26:59;;;;;;;10.70;4.97;;;;;;;;;;10443163;28;20223;-80
2021/03/29 20:32:03;;;;;;;11.27;5.20;;;;;;;;;;10439803;28;20246;-80
2021/03/29 20:37:07;;;;;;;9.47;5.20;;;;;;;;;;10441987;28;20227;-80
2021/03/29 20:42:09;;;;;;;13.17;5.53;;;;;;;;;;10438492;28;20238;-80
2021/03/29 20:47:14;;;;;;;12.70;5.60;;;;;;;;;;10445583;28;20773;-80
2021/03/29 20:52:16;;;;;;;12.07;4.53;;;;;;;;;;10448475;28;20231;-80
2021/03/29 20:57:18;;;;;;;8.43;4.40;;;;;;;;;;10448158;28;21380;-80
2021/03/29 21:02:21;;;;;;;10.33;4.50;;;;;;;;;;10452443;28;20277;-80
2021/03/29 21:07:24;;;;;;;8.43;4.33;;;;;;;;;;10453029;28;20214;-79
2021/03/29 21:12:26;;;;;;;9.53;4.00;;;;;;;;;;10438583;28;20262;-80
2021/03/29 21:17:29;;;;;;;13.57;4.67;;;;;;;;;;10450129;28;20207;-79
2021/03/29 21:22:31;;;;;;;7.57;3.97;;;;;;;;;;10448213;28;20234;-80
2021/03/29 21:27:33;;;;;;;7.83;4.20;;;;;;;;;;10444815;28;20224;-79
2021/03/29 21:32:37;;;;;;;11.30;5.10;;;;;;;;;;10445585;28;20238;-79
2021/03/29 21:37:42;;;;;;;10.00;4.50;;;;;;;;;;10444608;28;20214;-80
2021/03/29 21:42:45;;;;;;;10.07;5.10;;;;;;;;;;10450666;28;20234;-79
2021/03/29 21:47:48;;;;;;;11.07;5.57;;;;;;;;;;10450575;28;20218;-81
2021/03/29 21:52:50;;;;;;;10.70;5.50;;;;;;;;;;10436961;28;20246;-80
2021/03/29 21:57:52;;;;;;;14.67;4.93;;;;;;;;;;10442481;28;20230;-80
2021/03/29 22:02:56;;;;;;;10.37;4.60;;;;;;;;;;10446735;28;20227;-79
2021/03/29 22:07:59;;;;;;;8.10;4.40;;;;;;;;;;10451531;28;20216;-81
2021/03/29 22:13:02;;;;;;;11.53;4.20;;;;;;;;;;10442671;28;20235;-79
2021/03/29 22:18:05;;;;;;;10.20;4.40;;;;;;;;;;10447989;28;20667;-80
2021/03/29 22:23:07;;;;;;;8.80;3.90;;;;;;;;;;10448005;28;20211;-79
2021/03/29 22:28:13;;;;;;;6.63;3.73;;;;;;;;;;10445692;28;20234;-78
2021/03/29 22:33:21;;;;;;;7.13;4.17;;;;;;;;;;10443106;28;20615;-79
2021/03/29 22:43:42;;;;;;;10.37;4.00;;;;;;;;;;10407149;28;20211;-79
2021/03/29 22:48:45;;;;;;;8.33;4.13;;;;;;;;;;10439441;28;20215;-79
2021/03/29 22:53:47;;;;;;;7.27;4.03;;;;;;;;;;10436034;28;20235;-79
2021/03/29 22:58:48;;;;;;;8.70;3.90;;;;;;;;;;10449122;28;20230;-79
2021/03/29 23:03:51;;;;;;;8.77;3.80;;;;;;;;;;10445556;28;20592;-79
2021/03/29 23:08:53;;;;;;;7.73;3.93;;;;;;;;;;10448100;28;21578;-78
2021/03/29 23:13:55;;;;;;;8.63;3.80;;;;;;;;;;10445538;28;20723;-79
2021/03/29 23:18:58;;;;;;;11.87;4.40;;;;;;;;;;10453193;28;20218;-79
2021/03/29 23:24:02;;;;;;;8.67;3.97;;;;;;;;;;10450100;28;20206;-78
2021/03/29 23:29:04;;;;;;;9.13;4.37;;;;;;;;;;10447907;28;20222;-78
2021/03/29 23:34:07;;;;;;;11.33;4.20;;;;;;;;;;10450535;28;20249;-79
2021/03/29 23:39:09;;;;;;;7.90;4.07;;;;;;;;;;10452044;28;20609;-78
2021/03/29 23:44:11;;;;;;;9.37;4.07;;;;;;;;;;10455192;28;20597;-80
2021/03/29 23:49:14;;;;;;;8.53;4.00;;;;;;;;;;10445849;28;20203;-78
2021/03/29 23:54:16;;;;;;;12.30;4.23;;;;;;;;;;10449332;28;20230;-79
2021/03/29 23:59:18;;;;;;;8.83;4.37;;;;;;;;;;10453542;28;20242;-78
